Time;durP1;ratioP1;P1;durP2;ratioP2;P2;SDS_P1;SDS_P2;PMS_P1;PMS_P2;Temp;Humidity;BMP_temperature;BMP_pressure;BME280_temperature;BME280_humidity;BME280_pressure;Samples;Min_cycle;Max_cycle;Signal;HPM_P1;HPM_P2
2021/03/17 00:00:36;;;;;;;5.20;3.00;;;;;;;6.88;47.06;101934.97;5030148;28;20068;-68
2021/03/17 00:03:22;;;;;;;5.50;2.85;;;;;;;6.86;47.07;101931.44;5036166;28;20049;-68
2021/03/17 00:06:07;;;;;;;5.53;2.63;;;;;;;6.84;47.11;101934.25;5028050;28;20048;-68
2021/03/17 00:08:53;;;;;;;4.45;2.58;;;;;;;6.81;47.03;101929.00;5037218;28;20506;-68
2021/03/17 00:11:39;;;;;;;5.20;2.95;;;;;;;6.81;47.15;101938.97;5030384;28;20052;-68
2021/03/17 00:14:25;;;;;;;4.88;2.67;;;;;;;6.79;47.05;101938.19;5042241;28;20066;-68
2021/03/17 00:17:11;;;;;;;5.32;2.80;;;;;;;6.78;47.32;101933.69;5037109;28;20044;-68
2021/03/17 00:19:57;;;;;;;5.30;2.50;;;;;;;6.76;47.38;101936.50;5034236;28;20045;-68
2021/03/17 00:22:42;;;;;;;4.05;2.53;;;;;;;6.76;47.27;101941.94;5016184;28;20102;-68
2021/03/17 00:25:30;;;;;;;4.93;2.83;;;;;;;6.77;47.58;101940.09;5017871;28;20158;-68
2021/03/17 00:28:16;;;;;;;4.75;2.92;;;;;;;6.75;47.64;101945.59;5034913;28;20507;-68
2021/03/17 00:31:02;;;;;;;5.43;3.00;;;;;;;6.74;47.50;101954.75;5030382;28;20075;-68
2021/03/17 00:33:48;;;;;;;5.07;2.88;;;;;;;6.73;47.49;101959.31;5034682;28;20499;-69
2021/03/17 00:36:33;;;;;;;6.28;3.05;;;;;;;6.73;47.48;101964.75;5031866;28;20041;-68
2021/03/17 00:39:19;;;;;;;4.78;2.88;;;;;;;6.73;47.50;101964.75;5030572;28;20051;-68
2021/03/17 00:42:54;;;;;;;4.72;2.80;;;;;;;6.75;48.05;101970.97;5039587;28;20045;-68
2021/03/17 00:45:40;;;;;;;4.78;2.90;;;;;;;6.72;47.66;101970.25;5022734;28;20037;-68
2021/03/17 00:48:12;;;;;;;4.57;2.60;;;;;;;6.71;47.73;101977.53;5026268;28;20787;-68
2021/03/17 00:50:45;;;;;;;4.80;2.83;;;;;;;6.73;47.74;101972.91;5034885;28;20076;-68
2021/03/17 00:53:12;;;;;;;5.15;2.90;;;;;;;6.75;47.73;101978.25;5039326;28;20050;-68
2021/03/17 00:55:40;;;;;;;5.68;2.70;;;;;;;6.77;47.71;101972.72;5030186;28;20466;-68
2021/03/17 00:58:16;;;;;;;4.70;2.20;;;;;;;6.77;47.65;101972.72;5029226;28;20556;-68
2021/03/17 01:00:46;;;;;;;3.67;2.42;;;;;;;6.78;47.58;101975.38;5043122;28;20060;-68
2021/03/17 01:03:14;;;;;;;4.20;2.40;;;;;;;6.78;47.55;101969.06;5030371;28;20080;-68
2021/03/17 01:05:41;;;;;;;5.05;2.42;;;;;;;6.78;47.49;101971.78;5030152;28;20037;-67
2021/03/17 01:08:10;;;;;;;5.15;2.67;;;;;;;6.79;47.62;101971.69;5027592;28;20047;-68
2021/03/17 01:10:39;;;;;;;5.07;2.30;;;;;;;6.80;47.73;101972.56;5043183;28;20045;-68
2021/03/17 01:13:06;;;;;;;4.80;2.13;;;;;;;6.80;47.40;101969.84;5036873;28;20056;-68
2021/03/17 01:15:34;;;;;;;4.10;2.35;;;;;;;6.80;47.58;101975.28;5049814;28;20056;-68
2021/03/17 01:18:03;;;;;;;4.35;2.60;;;;;;;6.80;47.61;101968.03;5036795;28;20045;-68
2021/03/17 01:20:31;;;;;;;4.70;2.60;;;;;;;6.78;47.50;101969.94;5037446;28;20508;-67
2021/03/17 01:22:59;;;;;;;4.13;2.55;;;;;;;6.79;47.49;101973.53;5036665;28;20432;-68
2021/03/17 01:25:30;;;;;;;5.63;2.88;;;;;;;6.78;47.58;101967.22;5038579;28;20034;-68
2021/03/17 01:27:57;;;;;;;4.32;2.70;;;;;;;6.78;47.50;101971.78;5033390;28;20048;-68
2021/03/17 01:30:28;;;;;;;4.40;2.65;;;;;;;6.79;47.40;101971.69;5029995;28;20052;-68
2021/03/17 01:32:55;;;;;;;4.75;2.65;;;;;;;6.77;47.55;101970.88;5050193;28;20037;-68
2021/03/17 01:35:23;;;;;;;4.95;2.70;;;;;;;6.78;47.49;101971.78;5043056;28;20538;-68
2021/03/17 01:37:50;;;;;;;5.35;2.95;;;;;;;6.76;47.44;101969.13;5030161;28;20049;-68
2021/03/17 01:40:19;;;;;;;4.47;2.40;;;;;;;6.77;47.45;101968.16;5037134;28;20037;-68
2021/03/17 01:42:46;;;;;;;5.68;3.13;;;;;;;6.75;47.54;101970.97;5035069;28;20041;-68
2021/03/17 01:45:16;;;;;;;5.75;3.20;;;;;;;6.77;47.38;101975.44;5043624;28;20432;-67
2021/03/17 01:47:45;;;;;;;4.60;2.95;;;;;;;6.75;47.43;101976.41;5036116;28;20041;-68
2021/03/17 01:50:17;;;;;;;4.90;2.97;;;;;;;6.75;47.40;101975.53;5042060;28;20041;-68
2021/03/17 01:52:45;;;;;;;5.38;3.05;;;;;;;6.74;47.41;101974.69;5043783;28;20119;-68
2021/03/17 01:55:15;;;;;;;4.50;3.00;;;;;;;6.74;47.52;101976.50;5036646;28;20116;-68
2021/03/17 01:57:43;;;;;;;4.85;2.95;;;;;;;6.73;47.42;101980.19;5037471;28;20538;-68
2021/03/17 02:00:12;;;;;;;5.07;3.00;;;;;;;6.74;47.57;101971.06;5030199;28;20573;-68
2021/03/17 02:02:42;;;;;;;4.35;2.70;;;;;;;6.74;47.62;101979.22;5037843;28;20504;-68
2021/03/17 02:05:12;;;;;;;4.82;3.00;;;;;;;6.75;47.65;101984.56;5033782;28;20451;-68
2021/03/17 02:07:39;;;;;;;5.82;2.97;;;;;;;6.73;47.69;101988.34;5031643;28;20041;-68
2021/03/17 02:10:10;;;;;;;6.57;3.15;;;;;;;6.77;47.79;101991.75;5040257;28;20095;-68
2021/03/17 02:12:47;;;;;;;5.65;3.50;;;;;;;6.76;47.80;101980.00;5039595;28;20095;-67
2021/03/17 02:15:46;;;;;;;4.85;2.83;;;;;;;6.75;47.94;101987.28;5043830;28;20040;-68
2021/03/17 02:18:25;;;;;;;6.10;3.38;;;;;;;6.75;47.76;101994.56;5033341;28;20052;-68
2021/03/17 02:21:16;;;;;;;4.75;2.70;;;;;;;6.72;48.00;101992.91;5043211;28;20045;-67
2021/03/17 02:23:58;;;;;;;4.32;2.50;;;;;;;6.72;47.94;101992.91;5031417;28;20073;-68
2021/03/17 02:27:13;;;;;;;5.03;3.22;;;;;;;6.71;47.87;101990.25;5032804;28;20407;-68
2021/03/17 02:29:54;;;;;;;5.00;2.78;;;;;;;6.69;47.99;101992.16;4993820;28;20050;-68
2021/03/17 02:32:40;;;;;;;4.63;2.70;;;;;;;6.70;47.65;101991.22;5041205;28;20053;-68
2021/03/17 02:35:08;;;;;;;4.40;2.70;;;;;;;6.67;47.54;101986.81;5036406;28;20032;-68
2021/03/17 02:37:40;;;;;;;4.88;2.30;;;;;;;6.69;47.85;101997.59;5049979;28;20091;-68
2021/03/17 02:40:11;;;;;;;5.15;2.78;;;;;;;6.68;47.82;101993.13;5030881;28;20049;-68
2021/03/17 02:42:45;;;;;;;5.57;2.97;;;;;;;6.69;47.86;102003.94;5044415;28;20081;-68
2021/03/17 02:45:17;;;;;;;6.25;3.70;;;;;;;6.68;47.91;102004.00;5044627;28;20368;-68
2021/03/17 02:47:50;;;;;;;5.82;3.40;;;;;;;6.67;47.79;101994.06;5045673;28;20098;-68
2021/03/17 02:50:20;;;;;;;6.57;4.03;;;;;;;6.66;47.84;102004.09;5030830;28;20065;-68
2021/03/17 02:52:53;;;;;;;7.90;4.55;;;;;;;6.69;47.77;102003.03;5039774;28;20124;-68
2021/03/17 02:55:23;;;;;;;5.97;4.25;;;;;;;6.66;47.46;102009.53;5031225;28;20049;-68
2021/03/17 02:57:54;;;;;;;6.75;4.47;;;;;;;6.67;47.40;102013.09;5039053;28;20497;-68
2021/03/17 03:00:23;;;;;;;5.55;3.80;;;;;;;6.65;47.18;102015.06;5034443;28;20125;-68
2021/03/17 03:02:52;;;;;;;6.55;3.83;;;;;;;6.63;47.35;102009.69;5030090;28;20132;-68
2021/03/17 03:05:21;;;;;;;5.43;3.38;;;;;;;6.62;47.23;102004.31;5027237;28;20038;-68
2021/03/17 03:07:50;;;;;;;5.65;3.72;;;;;;;6.61;47.39;102008.00;5027600;28;20033;-68
2021/03/17 03:10:21;;;;;;;5.20;3.40;;;;;;;6.59;47.36;102004.47;5030338;28;20045;-69
2021/03/17 03:12:49;;;;;;;6.78;3.67;;;;;;;6.57;47.53;102001.84;5029343;28;20459;-69
2021/03/17 03:15:17;;;;;;;5.38;3.47;;;;;;;6.57;47.47;102011.84;5029824;28;20111;-69
2021/03/17 03:17:46;;;;;;;5.60;3.42;;;;;;;6.56;47.46;102008.25;5031164;28;20046;-69
2021/03/17 03:20:17;;;;;;;5.72;3.78;;;;;;;6.56;47.67;102005.53;5029936;28;20116;-69
2021/03/17 03:22:52;;;;;;;5.90;3.75;;;;;;;6.55;47.63;102002.88;5030870;28;20042;-68
2021/03/17 03:25:21;;;;;;;5.97;3.97;;;;;;;6.55;47.63;102013.75;5022509;28;21667;-68
2021/03/17 03:27:49;;;;;;;6.38;4.03;;;;;;;6.54;47.59;102004.72;5017000;28;20068;-69
2021/03/17 03:30:20;;;;;;;7.18;3.80;;;;;;;6.54;47.71;102003.84;5028790;28;20042;-69
2021/03/17 03:32:48;;;;;;;6.90;4.15;;;;;;;6.52;47.96;102003.91;5029375;28;20481;-69
2021/03/17 03:35:17;;;;;;;7.40;4.10;;;;;;;6.53;47.66;102000.25;5028866;28;20042;-69
2021/03/17 03:37:44;;;;;;;7.35;4.55;;;;;;;6.52;47.59;102005.75;5032735;28;20046;-69
2021/03/17 03:40:15;;;;;;;7.00;4.30;;;;;;;6.54;47.65;102009.28;5028023;28;20039;-68
2021/03/17 03:42:43;;;;;;;8.23;4.47;;;;;;;6.52;47.59;102003.03;5022590;28;20046;-68
2021/03/17 03:45:14;;;;;;;6.95;4.40;;;;;;;6.51;47.66;102003.97;5030411;28;20037;-69
2021/03/17 03:47:42;;;;;;;7.15;4.40;;;;;;;6.48;47.57;101999.59;5035193;28;20394;-69
2021/03/17 03:50:13;;;;;;;7.22;4.55;;;;;;;6.49;47.84;102009.53;5020930;28;20488;-69
2021/03/17 03:52:49;;;;;;;6.68;4.35;;;;;;;6.49;47.82;102005.94;5029438;28;20104;-69
2021/03/17 03:55:25;;;;;;;6.57;4.03;;;;;;;6.49;47.91;102000.50;5021413;28;20109;-68
2021/03/17 03:57:54;;;;;;;5.22;3.40;;;;;;;6.45;47.75;102005.19;5043066;28;20216;-68
2021/03/17 04:00:25;;;;;;;7.22;4.15;;;;;;;6.47;47.85;102002.41;5032347;28;20041;-69
2021/03/17 04:02:57;;;;;;;6.25;3.90;;;;;;;6.46;47.64;102006.94;5054859;23;20397;-72
2021/03/17 04:05:32;;;;;;;6.45;3.83;;;;;;;6.47;47.79;102016.00;5030897;28;20097;-72
2021/03/17 04:08:08;;;;;;;6.03;3.88;;;;;;;6.46;47.98;102014.22;5032199;28;20060;-72
2021/03/17 04:10:38;;;;;;;5.55;3.60;;;;;;;6.45;47.76;102007.03;5031736;28;20388;-72
2021/03/17 04:13:08;;;;;;;5.53;3.20;;;;;;;6.43;47.50;102006.22;5025660;28;20378;-72
2021/03/17 04:15:38;;;;;;;5.95;3.90;;;;;;;6.44;47.59;102007.97;5012364;28;20073;-72
2021/03/17 04:18:10;;;;;;;5.38;3.45;;;;;;;6.43;47.66;102008.94;5010202;28;20356;-71
2021/03/17 04:20:42;;;;;;;6.10;3.70;;;;;;;6.39;47.69;102007.34;5010598;28;20044;-71
2021/03/17 04:23:12;;;;;;;5.55;3.67;;;;;;;6.38;47.60;102002.88;5011618;28;20046;-71
2021/03/17 04:25:46;;;;;;;5.35;3.42;;;;;;;6.36;47.52;102009.25;5009113;28;20056;-71
2021/03/17 04:28:17;;;;;;;5.22;3.00;;;;;;;6.36;47.56;102013.81;5011938;28;20096;-71
2021/03/17 04:30:45;;;;;;;5.30;3.20;;;;;;;6.33;47.57;102012.16;5009974;28;20038;-71
2021/03/17 04:33:15;;;;;;;5.40;3.40;;;;;;;6.32;47.54;102018.53;5011159;28;20061;-72
2021/03/17 04:35:44;;;;;;;5.38;3.97;;;;;;;6.31;47.63;102022.19;5011065;28;20104;-72
2021/03/17 04:38:14;;;;;;;6.32;3.95;;;;;;;6.30;47.42;102020.44;5006663;28;20129;-72
2021/03/17 04:40:44;;;;;;;6.50;4.20;;;;;;;6.27;47.58;102016.97;5007489;28;20385;-72
2021/03/17 04:43:12;;;;;;;5.30;3.50;;;;;;;6.26;47.46;102015.22;5009984;28;20045;-72
2021/03/17 04:45:41;;;;;;;4.80;3.42;;;;;;;6.23;47.69;102023.53;5002724;28;20054;-72
2021/03/17 04:48:10;;;;;;;6.03;3.78;;;;;;;6.23;47.57;102029.84;5011465;28;20115;-72
2021/03/17 04:50:39;;;;;;;5.35;3.40;;;;;;;6.22;47.54;102024.50;4999775;28;20047;-72
2021/03/17 04:53:09;;;;;;;4.85;3.35;;;;;;;6.22;47.78;102032.66;5011291;28;20057;-72
2021/03/17 04:55:37;;;;;;;5.32;3.55;;;;;;;6.20;47.75;102034.56;5015491;28;20488;-72
2021/03/17 04:58:10;;;;;;;4.40;2.88;;;;;;;6.21;47.88;102033.59;5009981;28;20042;-72
2021/03/17 05:00:39;;;;;;;5.13;2.95;;;;;;;6.17;47.71;102038.28;5007470;28;20085;-73
2021/03/17 05:03:11;;;;;;;4.18;2.63;;;;;;;6.18;47.86;102040.06;5006259;28;20413;-73
2021/03/17 05:05:41;;;;;;;4.50;2.90;;;;;;;6.15;47.89;102039.34;5015397;28;20089;-73
2021/03/17 05:08:10;;;;;;;3.70;2.40;;;;;;;6.17;47.94;102042.88;5005706;28;20042;-73
2021/03/17 05:10:39;;;;;;;4.60;2.78;;;;;;;6.17;47.81;102045.59;5005183;28;20050;-73
2021/03/17 05:13:10;;;;;;;4.07;2.40;;;;;;;6.17;47.96;102040.16;5007137;28;20041;-73
2021/03/17 05:15:39;;;;;;;4.03;2.63;;;;;;;6.15;47.89;102040.22;5011229;28;20068;-72
2021/03/17 05:18:08;;;;;;;4.65;3.20;;;;;;;6.15;47.76;102040.22;5011283;28;20034;-73
2021/03/17 05:20:36;;;;;;;3.95;2.70;;;;;;;6.16;47.99;102046.53;5005419;28;20046;-72
2021/03/17 05:23:04;;;;;;;4.18;2.53;;;;;;;6.15;47.80;102034.78;5007352;28;20108;-73
2021/03/17 05:25:33;;;;;;;4.10;2.70;;;;;;;6.15;47.87;102036.63;5010491;28;20038;-73
2021/03/17 05:28:04;;;;;;;4.22;2.83;;;;;;;6.15;47.95;102033.91;5012226;28;20380;-72
2021/03/17 05:30:35;;;;;;;4.10;2.70;;;;;;;6.16;48.26;102039.28;5011870;28;20429;-72
2021/03/17 05:33:05;;;;;;;5.18;2.78;;;;;;;6.14;47.98;102046.59;5011423;28;20040;-73
2021/03/17 05:35:33;;;;;;;4.35;2.53;;;;;;;6.14;47.85;102048.44;5012115;28;20045;-73
2021/03/17 05:38:01;;;;;;;4.63;3.05;;;;;;;6.13;48.12;102044.84;5011709;28;20044;-73
2021/03/17 05:40:29;;;;;;;4.72;2.70;;;;;;;6.13;47.98;102041.25;5011760;28;20429;-73
2021/03/17 05:43:01;;;;;;;5.00;3.00;;;;;;;6.15;47.97;102050.22;5011890;28;20125;-73
2021/03/17 05:45:32;;;;;;;4.57;3.10;;;;;;;6.12;48.08;102045.78;5011067;28;20512;-72
2021/03/17 05:48:10;;;;;;;5.00;3.17;;;;;;;6.12;48.18;102045.78;5019366;28;20291;-73
2021/03/17 05:50:39;;;;;;;4.70;3.10;;;;;;;6.12;47.93;102043.09;5020879;28;20445;-73
2021/03/17 05:53:07;;;;;;;4.70;3.35;;;;;;;6.12;48.14;102051.22;5007236;28;20044;-73
2021/03/17 05:55:34;;;;;;;4.97;3.42;;;;;;;6.11;48.14;102048.59;5022002;28;20050;-73
2021/03/17 05:58:04;;;;;;;4.43;3.08;;;;;;;6.10;48.07;102050.41;5009884;28;20133;-73
2021/03/17 06:00:32;;;;;;;5.00;3.45;;;;;;;6.09;47.97;102048.66;5011185;28;20070;-73
2021/03/17 06:03:03;;;;;;;5.32;3.63;;;;;;;6.10;48.24;102050.41;5014969;28;20056;-73
2021/03/17 06:05:32;;;;;;;4.97;3.67;;;;;;;6.08;48.07;102054.19;5009837;28;20798;-73
2021/03/17 06:08:04;;;;;;;5.53;3.70;;;;;;;6.07;48.27;102058.72;5013673;28;20569;-73
2021/03/17 06:10:33;;;;;;;5.90;3.53;;;;;;;6.04;48.10;102056.16;5010380;28;20389;-74
2021/03/17 06:13:10;;;;;;;4.93;3.40;;;;;;;6.05;48.17;102057.91;5008108;28;20092;-73
2021/03/17 06:15:39;;;;;;;4.88;2.88;;;;;;;6.04;48.22;102052.56;5007213;28;20122;-73
2021/03/17 06:18:29;;;;;;;5.47;3.38;;;;;;;6.03;48.18;102054.38;5019245;28;20050;-74
2021/03/17 06:20:59;;;;;;;5.32;3.10;;;;;;;6.03;48.27;102054.38;5014752;28;20046;-73
2021/03/17 06:23:27;;;;;;;5.10;3.40;;;;;;;6.00;48.10;102054.56;5013234;28;20057;-73
2021/03/17 06:25:57;;;;;;;4.20;2.85;;;;;;;6.02;48.37;102060.78;5005559;28;20042;-73
2021/03/17 06:28:26;;;;;;;4.78;2.90;;;;;;;5.99;48.15;102058.22;5027201;28;20042;-73
2021/03/17 06:30:53;;;;;;;4.63;3.10;;;;;;;5.98;48.33;102054.63;5011003;28;20077;-73
2021/03/17 06:33:21;;;;;;;4.18;2.90;;;;;;;6.00;48.52;102056.41;5012700;28;20060;-74
2021/03/17 06:35:48;;;;;;;4.50;3.13;;;;;;;5.97;48.46;102060.13;5014089;28;20042;-73
2021/03/17 06:38:23;;;;;;;4.82;3.22;;;;;;;6.01;48.60;102050.84;5013638;28;20069;-73
2021/03/17 06:40:57;;;;;;;4.25;2.95;;;;;;;6.01;48.72;102055.44;5006594;28;21349;-74
2021/03/17 06:43:37;;;;;;;5.25;3.50;;;;;;;6.01;48.94;102060.88;5010702;28;20042;-74
2021/03/17 06:46:06;;;;;;;5.57;3.28;;;;;;;5.97;48.60;102058.28;5000994;28;20474;-74
2021/03/17 06:48:53;;;;;;;5.50;3.60;;;;;;;5.97;48.53;102052.88;5020587;28;20061;-73
2021/03/17 06:51:21;;;;;;;5.47;3.78;;;;;;;5.99;48.47;102055.50;5010856;28;20046;-74
2021/03/17 06:53:51;;;;;;;6.50;3.88;;;;;;;5.98;48.32;102062.78;5013300;28;20050;-74
2021/03/17 06:56:21;;;;;;;6.15;3.92;;;;;;;6.00;48.56;102060.00;5017849;28;20049;-73
2021/03/17 06:58:51;;;;;;;5.75;3.67;;;;;;;5.99;48.46;102058.22;5004982;28;20098;-72
2021/03/17 07:01:35;;;;;;;5.72;3.85;;;;;;;6.02;48.75;102054.47;5012780;28;20038;-71
2021/03/17 07:04:05;;;;;;;6.05;3.90;;;;;;;5.99;48.62;102063.66;5006173;28;20124;-72
2021/03/17 07:06:33;;;;;;;5.88;3.88;;;;;;;5.98;48.55;102060.06;5012239;28;20034;-72
2021/03/17 07:09:17;;;;;;;7.35;4.60;;;;;;;6.02;49.17;102060.78;5017364;28;20046;-69
2021/03/17 07:11:46;;;;;;;5.68;3.60;;;;;;;6.00;48.51;102056.41;5009168;28;20038;-72
2021/03/17 07:14:14;;;;;;;5.82;3.72;;;;;;;6.00;48.53;102048.25;5021888;28;20033;-71
2021/03/17 07:16:44;;;;;;;5.78;3.75;;;;;;;6.02;48.68;102049.03;5009533;28;20046;-72
2021/03/17 07:19:36;;;;;;;5.15;3.58;;;;;;;6.03;48.96;102046.25;5009443;28;20033;-70
2021/03/17 07:22:05;;;;;;;5.35;3.10;;;;;;;6.00;48.76;102049.13;5008947;28;20459;-71
2021/03/17 07:24:34;;;;;;;4.72;2.78;;;;;;;6.04;48.83;102052.56;5006614;28;20042;-71
2021/03/17 07:27:16;;;;;;;5.72;3.60;;;;;;;6.06;49.17;102053.38;5009757;28;20038;-71
2021/03/17 07:29:44;;;;;;;6.63;3.55;;;;;;;6.04;48.70;102049.84;5006031;28;20054;-71
2021/03/17 07:32:11;;;;;;;5.88;3.60;;;;;;;6.06;48.78;102050.66;5008459;28;20046;-72
2021/03/17 07:34:39;;;;;;;6.13;4.03;;;;;;;6.06;48.79;102048.81;5008822;28;20084;-72
2021/03/17 07:37:09;;;;;;;5.70;3.58;;;;;;;6.08;48.80;102046.91;5009478;28;20026;-72
2021/03/17 07:39:38;;;;;;;6.50;4.10;;;;;;;6.09;48.91;102056.81;5022780;28;20046;-72
2021/03/17 07:42:07;;;;;;;5.75;3.50;;;;;;;6.09;48.73;102066.81;5006006;28;20393;-70
2021/03/17 07:44:35;;;;;;;5.82;3.80;;;;;;;6.11;48.98;102059.44;5008522;28;20140;-72
2021/03/17 07:47:15;;;;;;;6.72;4.30;;;;;;;6.13;49.49;102058.44;5023477;28;20078;-72
2021/03/17 07:49:49;;;;;;;6.53;3.78;;;;;;;6.13;49.10;102066.56;5007558;28;20046;-71
2021/03/17 07:52:19;;;;;;;7.55;4.50;;;;;;;6.15;49.08;102069.22;5023272;28;20051;-71
2021/03/17 07:54:51;;;;;;;6.70;4.05;;;;;;;6.17;49.13;102065.47;5007307;28;20124;-73
2021/03/17 07:57:21;;;;;;;6.28;3.35;;;;;;;6.17;48.93;102062.75;5005982;28;20046;-72
2021/03/17 07:59:55;;;;;;;7.18;3.90;;;;;;;6.21;49.13;102074.34;5007675;28;20041;-72
2021/03/17 08:02:23;;;;;;;5.38;3.22;;;;;;;6.22;49.26;102073.41;5005857;28;20042;-72
2021/03/17 08:04:51;;;;;;;5.65;3.53;;;;;;;6.24;49.15;102072.38;5007346;28;20038;-72
2021/03/17 08:07:19;;;;;;;5.97;3.40;;;;;;;6.27;49.34;102085.78;5005782;28;20108;-70
2021/03/17 08:09:47;;;;;;;5.05;2.80;;;;;;;6.28;48.88;102083.97;4990400;28;20119;-71
2021/03/17 08:12:17;;;;;;;5.32;2.60;;;;;;;6.32;49.04;102083.75;5009757;28;20046;-72
2021/03/17 08:14:46;;;;;;;3.72;2.20;;;;;;;6.33;49.02;102092.78;5009914;28;20044;-74
2021/03/17 08:17:30;;;;;;;4.82;2.65;;;;;;;6.36;48.86;102098.94;5004224;28;20034;-74
2021/03/17 08:20:18;;;;;;;5.90;2.63;;;;;;;6.37;49.01;102094.38;5008235;28;20124;-76
2021/03/17 08:22:46;;;;;;;4.75;2.50;;;;;;;6.38;48.80;102104.31;5011238;28;20480;-75
2021/03/17 08:25:35;;;;;;;5.53;2.80;;;;;;;6.40;48.79;102104.22;5005314;28;20049;-76
2021/03/17 08:28:17;;;;;;;5.30;2.75;;;;;;;6.42;48.79;102096.91;5023261;28;20129;-75
2021/03/17 08:30:45;;;;;;;4.65;2.28;;;;;;;6.39;48.91;102099.75;5004791;28;20050;-73
2021/03/17 08:33:39;;;;;;;3.95;2.13;;;;;;;6.43;48.74;102094.06;5007810;28;20127;-74
2021/03/17 08:36:10;;;;;;;3.78;2.50;;;;;;;6.39;48.42;102097.91;5008322;28;20037;-73
2021/03/17 08:38:50;;;;;;;3.58;2.05;;;;;;;6.43;48.17;102093.19;5003917;28;20064;-74
2021/03/17 08:41:50;;;;;;;4.20;2.33;;;;;;;6.37;48.18;102097.09;5005769;28;20057;-73
2021/03/17 08:44:19;;;;;;;3.50;2.10;;;;;;;6.35;48.07;102091.75;5013018;28;20072;-73
2021/03/17 08:46:47;;;;;;;4.57;2.28;;;;;;;6.33;47.99;102092.78;5016197;28;20433;-74
2021/03/17 08:49:27;;;;;;;2.53;1.73;;;;;;;6.30;47.65;102104.69;5007823;28;20041;-73
2021/03/17 08:52:12;;;;;;;3.60;1.88;;;;;;;6.23;47.62;102108.66;5006483;28;20038;-76
2021/03/17 08:55:10;;;;;;;2.88;1.65;;;;;;;6.20;47.93;102107.91;5010791;28;20054;-76
2021/03/17 08:57:56;;;;;;;3.33;1.85;;;;;;;6.18;48.03;102115.25;5015153;28;20092;-76
2021/03/17 09:00:44;;;;;;;2.58;1.40;;;;;;;6.13;48.05;102120.91;5008073;28;20038;-75
2021/03/17 09:03:51;;;;;;;2.60;1.58;;;;;;;6.14;48.51;102116.38;5007660;28;20057;-74
2021/03/17 09:06:23;;;;;;;2.88;1.73;;;;;;;6.11;48.27;102121.94;5003263;28;20132;-74
2021/03/17 09:08:56;;;;;;;4.53;1.90;;;;;;;6.14;48.46;102119.06;5010972;28;20044;-73
2021/03/17 09:11:58;;;;;;;;;;;;;;;5.90;48.73;102124.72;5011042;28;20066;-73
2021/03/17 09:14:34;;;;;;;3.13;1.52;;;;;;;6.16;48.58;102117.19;5000704;28;20012;-73
2021/03/17 09:17:34;;;;;;;2.75;1.60;;;;;;;6.23;48.63;102115.94;5010712;28;20122;-74
2021/03/17 09:20:22;;;;;;;2.30;1.23;;;;;;;6.29;48.77;102108.34;5009096;28;20141;-75
2021/03/17 09:22:59;;;;;;;5.20;1.73;;;;;;;6.35;48.75;102110.75;5009135;28;20132;-73
2021/03/17 09:25:29;;;;;;;3.40;1.42;;;;;;;6.38;48.03;102101.59;5009887;28;20057;-74
2021/03/17 09:28:03;;;;;;;3.50;1.60;;;;;;;6.47;47.96;102112.00;5009269;28;20125;-75
2021/03/17 09:30:46;;;;;;;3.40;1.48;;;;;;;6.53;47.55;102108.09;5010991;28;20391;-76
2021/03/17 09:33:18;;;;;;;2.92;1.25;;;;;;;6.56;47.83;102110.66;4999933;28;20101;-74
2021/03/17 09:35:57;;;;;;;2.97;1.48;;;;;;;6.58;47.47;102101.47;5007078;28;20088;-74
2021/03/17 09:38:28;;;;;;;2.80;1.48;;;;;;;6.62;47.72;102097.66;5007018;28;20540;-73
2021/03/17 09:40:59;;;;;;;3.33;1.48;;;;;;;6.66;47.14;102104.72;5012318;28;20070;-76
2021/03/17 09:43:37;;;;;;;5.47;2.10;;;;;;;6.68;46.82;102097.34;5012680;28;20041;-75
2021/03/17 09:46:33;;;;;;;3.20;1.80;;;;;;;6.69;47.01;102111.81;5005741;28;20057;-74
2021/03/17 09:49:05;;;;;;;3.67;2.13;;;;;;;6.74;46.85;102112.47;4996389;28;20116;-75
2021/03/17 09:51:35;;;;;;;2.95;1.85;;;;;;;6.75;47.11;102103.34;5006719;28;20420;-74
2021/03/17 09:54:06;;;;;;;5.05;2.58;;;;;;;6.79;46.88;102098.63;5014164;28;20101;-75
2021/03/17 09:56:45;;;;;;;4.60;2.20;;;;;;;6.82;46.14;102098.50;5012419;28;20046;-75
2021/03/17 09:59:18;;;;;;;3.78;1.83;;;;;;;6.83;46.79;102102.97;5020813;28;20048;-74
2021/03/17 10:01:54;;;;;;;3.58;1.88;;;;;;;6.83;46.37;102102.97;5020443;28;20401;-73
2021/03/17 10:04:24;;;;;;;3.08;1.92;;;;;;;6.83;47.02;102098.38;5013412;28;20712;-75
2021/03/17 10:06:52;;;;;;;4.43;2.13;;;;;;;6.85;46.58;102106.47;5014323;28;20383;-76
2021/03/17 10:09:20;;;;;;;4.05;2.10;;;;;;;6.85;46.79;102107.34;5027724;28;20034;-74
2021/03/17 10:11:50;;;;;;;3.85;2.20;;;;;;;6.86;46.40;102106.41;5013655;28;20072;-74
2021/03/17 10:14:19;;;;;;;4.18;2.00;;;;;;;6.86;46.42;102109.13;5008665;28;20030;-76
2021/03/17 10:16:46;;;;;;;3.50;1.60;;;;;;;6.84;46.36;102105.59;5011588;28;20066;-75
2021/03/17 10:19:15;;;;;;;4.88;1.95;;;;;;;6.87;46.28;102110.88;5013321;28;20065;-73
2021/03/17 10:21:52;;;;;;;4.57;1.70;;;;;;;6.87;45.68;102110.00;5006963;28;20125;-72
2021/03/17 10:24:31;;;;;;;4.80;1.80;;;;;;;6.85;45.59;102115.50;5012739;28;20065;-75
2021/03/17 10:26:58;;;;;;;3.97;1.80;;;;;;;6.84;46.07;102113.75;5013468;28;20092;-76
2021/03/17 10:29:25;;;;;;;3.72;1.75;;;;;;;6.85;45.96;102110.06;5012808;28;20406;-78
2021/03/17 10:31:55;;;;;;;2.83;1.50;;;;;;;6.85;45.85;102099.19;5011276;28;20506;-77
2021/03/17 10:34:26;;;;;;;2.92;1.50;;;;;;;6.85;45.43;102109.19;5013040;28;20042;-78
2021/03/17 10:36:56;;;;;;;2.83;1.52;;;;;;;6.86;45.38;102110.97;5011453;28;20066;-77
2021/03/17 10:39:28;;;;;;;3.17;1.50;;;;;;;6.86;45.04;102121.84;5012848;28;20133;-77
2021/03/17 10:41:56;;;;;;;4.13;1.50;;;;;;;6.77;45.52;102142.22;5013769;28;20088;-78
2021/03/17 10:44:26;;;;;;;3.25;1.40;;;;;;;6.74;44.74;102135.13;5011796;28;20065;-76
2021/03/17 10:47:06;;;;;;;2.80;1.30;;;;;;;6.75;44.30;102136.84;5008568;28;20042;-76
2021/03/17 10:49:36;;;;;;;2.33;0.98;;;;;;;6.69;44.88;102125.41;5012671;28;20042;-77
2021/03/17 10:52:08;;;;;;;2.40;0.77;;;;;;;6.64;45.12;102128.38;5012086;28;20041;-75
2021/03/17 10:54:38;;;;;;;2.17;1.00;;;;;;;6.61;44.94;102122.19;5013345;28;20042;-75
2021/03/17 10:57:19;;;;;;;4.05;1.00;;;;;;;6.56;44.23;102118.81;5013848;28;20100;-76
2021/03/17 10:59:47;;;;;;;2.40;1.08;;;;;;;6.50;44.89;102111.84;5019011;28;20049;-75
2021/03/17 11:02:16;;;;;;;2.20;0.93;;;;;;;6.48;44.95;102110.16;5005410;28;20101;-78
2021/03/17 11:05:06;;;;;;;3.42;0.90;;;;;;;6.46;44.85;102109.34;5014482;28;20042;-76
2021/03/17 11:07:56;;;;;;;1.95;0.90;;;;;;;6.43;45.21;102112.22;5012969;28;20084;-75
2021/03/17 11:10:57;;;;;;;3.83;1.33;;;;;;;6.40;45.17;102102.41;5012560;28;20095;-75
2021/03/17 11:13:44;;;;;;;2.58;1.00;;;;;;;6.38;44.37;102104.31;5005589;28;20038;-78
2021/03/17 11:16:27;;;;;;;2.25;1.13;;;;;;;6.40;44.56;102101.53;5011259;28;20052;-77
2021/03/17 11:18:56;;;;;;;3.80;0.85;;;;;;;6.39;45.36;102099.75;5004692;28;20042;-77
2021/03/17 11:21:29;;;;;;;2.38;1.30;;;;;;;6.44;44.72;102108.53;5012832;28;20216;-76
2021/03/17 11:23:58;;;;;;;;;;;;;;;6.19;45.06;102101.59;5009289;28;20038;-75
2021/03/17 11:26:28;;;;;;;1.45;0.90;;;;;;;6.42;45.38;102108.63;5012423;28;20004;-76
2021/03/17 11:28:57;;;;;;;2.50;0.93;;;;;;;6.45;45.19;102113.03;5008854;28;20053;-76
2021/03/17 11:31:28;;;;;;;3.15;0.90;;;;;;;6.49;44.59;102107.38;5009973;28;20066;-77
2021/03/17 11:33:55;;;;;;;1.92;0.70;;;;;;;6.51;45.05;102110.88;5005951;28;20469;-76
2021/03/17 11:36:23;;;;;;;1.55;0.75;;;;;;;6.54;44.85;102110.75;5027868;28;20050;-78
2021/03/17 11:38:51;;;;;;;1.20;0.75;;;;;;;6.58;44.81;102106.06;5012409;28;20421;-77
2021/03/17 11:41:20;;;;;;;2.83;1.15;;;;;;;6.64;44.31;102109.34;5004602;28;20123;-79
2021/03/17 11:43:48;;;;;;;1.92;0.90;;;;;;;6.64;44.41;102103.00;5013544;28;20037;-75
2021/03/17 11:46:17;;;;;;;1.60;0.80;;;;;;;6.72;44.55;102103.50;5009376;28;20573;-74
2021/03/17 11:48:45;;;;;;;2.47;0.93;;;;;;;6.73;43.95;102095.28;5011270;28;20053;-75
2021/03/17 11:51:14;;;;;;;1.50;0.70;;;;;;;6.80;43.89;102095.84;5011486;28;20042;-74
2021/03/17 11:53:42;;;;;;;2.13;0.90;;;;;;;6.83;43.86;102097.53;5008686;28;20046;-77
2021/03/17 11:56:09;;;;;;;2.45;0.90;;;;;;;6.86;43.82;102100.97;5010432;28;20503;-75
2021/03/17 11:58:38;;;;;;;4.15;1.25;;;;;;;6.87;43.12;102099.13;5009853;28;20052;-76
2021/03/17 12:01:07;;;;;;;2.95;1.00;;;;;;;6.91;43.28;102095.31;5007422;28;20042;-74
2021/03/17 12:03:37;;;;;;;2.65;1.20;;;;;;;6.94;43.49;102097.84;5010159;28;20058;-75